createdAt,value
2023-04-19T00:00:33.904Z,7.90
2023-04-19T00:05:22.435Z,7.80
2023-04-19T00:10:53.048Z,7.80
2023-04-19T00:15:45.443Z,7.70
2023-04-19T00:20:33.070Z,7.70
2023-04-19T00:25:20.613Z,7.70
2023-04-19T00:30:07.816Z,7.70
2023-04-19T00:35:14.820Z,7.70
2023-04-19T00:39:59.202Z,7.60
2023-04-19T00:44:47.155Z,7.70
2023-04-19T00:49:34.802Z,7.70
2023-04-19T00:54:41.680Z,7.70
2023-04-19T00:59:28.700Z,7.60
2023-04-19T01:04:20.451Z,7.60
2023-04-19T01:09:04.813Z,7.60
2023-04-19T01:13:54.950Z,7.50
2023-04-19T01:18:41.807Z,7.50
2023-04-19T01:23:29.254Z,7.40
2023-04-19T01:28:16.559Z,7.40
2023-04-19T01:33:03.246Z,7.40
2023-04-19T01:37:56.709Z,7.40
2023-04-19T01:42:41.914Z,7.40
2023-04-19T01:47:29.128Z,7.40
2023-04-19T01:52:15.798Z,7.40
2023-04-19T01:57:08.499Z,7.30
2023-04-19T02:01:53.739Z,7.20
2023-04-19T02:06:41.584Z,7.10
2023-04-19T02:11:28.481Z,7.10
2023-04-19T02:16:15.586Z,7.10
2023-04-19T02:21:03.252Z,7.10
2023-04-19T02:25:53.943Z,7.00
2023-04-19T02:30:40.799Z,6.90
2023-04-19T02:35:26.982Z,7.00
2023-04-19T02:40:46.644Z,6.80
2023-04-19T02:45:56.797Z,6.80
2023-04-19T02:50:40.927Z,6.70
2023-04-19T02:55:28.686Z,6.60
2023-04-19T03:00:35.603Z,6.50
2023-04-19T03:05:39.762Z,6.40
2023-04-19T03:10:24.131Z,6.30
2023-04-19T03:15:12.881Z,6.40
2023-04-19T03:20:00.295Z,6.40
2023-04-19T03:25:08.651Z,6.40
2023-04-19T03:29:52.862Z,6.40
2023-04-19T03:34:40.003Z,6.30
2023-04-19T03:39:28.312Z,6.30
2023-04-19T03:44:35.333Z,6.20
2023-04-19T03:49:22.013Z,6.10
2023-04-19T03:54:22.395Z,6.20
2023-04-19T03:59:16.575Z,6.20
2023-04-19T04:04:04.682Z,6.10
2023-04-19T04:08:49.353Z,6.20
2023-04-19T04:13:36.376Z,6.20
2023-04-19T04:18:42.293Z,6.20
2023-04-19T04:23:30.010Z,6.00
2023-04-19T04:28:16.014Z,6.10
2023-04-19T04:33:03.941Z,6.00
2023-04-19T04:37:50.946Z,5.90
2023-04-19T04:42:39.201Z,5.90
2023-04-19T04:48:00.719Z,5.90
2023-04-19T04:52:48.455Z,5.70
2023-04-19T04:58:05.145Z,5.80
2023-04-19T05:03:13.745Z,5.80
2023-04-19T05:08:15.214Z,5.70
2023-04-19T05:13:07.640Z,5.70
2023-04-19T05:17:51.488Z,5.70
2023-04-19T05:22:41.659Z,5.70
2023-04-19T05:27:27.737Z,5.80
2023-04-19T05:32:16.194Z,5.90
2023-04-19T05:37:06.848Z,6.00
2023-04-19T05:41:54.910Z,6.10
2023-04-19T05:46:42.801Z,6.10
2023-04-19T05:51:31.928Z,6.00
2023-04-19T05:56:52.182Z,6.00
2023-04-19T06:01:36.319Z,6.00
2023-04-19T06:06:24.141Z,6.00
2023-04-19T06:11:24.513Z,5.90
2023-04-19T06:16:19.810Z,6.00
2023-04-19T06:21:07.554Z,6.10
2023-04-19T06:25:51.015Z,6.20
2023-04-19T06:31:01.675Z,6.30
2023-04-19T06:35:45.564Z,6.30
2023-04-19T06:40:32.050Z,6.40
2023-04-19T06:45:20.572Z,6.70
2023-04-19T06:50:23.238Z,6.90
2023-04-19T06:55:12.985Z,6.80
2023-04-19T07:00:01.743Z,6.70
2023-04-19T07:04:48.695Z,6.90
2023-04-19T07:09:51.584Z,7.30
2023-04-19T07:14:44.306Z,7.50
2023-04-19T07:19:29.232Z,7.90
2023-04-19T07:24:16.893Z,8.10
2023-04-19T07:29:03.642Z,8.40
2023-04-19T07:33:53.569Z,8.70
2023-04-19T07:38:46.416Z,8.40
2023-04-19T07:48:50.099Z,8.90
2023-04-19T07:53:37.814Z,8.90
2023-04-19T07:58:26.976Z,8.90
2023-04-19T08:03:17.859Z,9.10
2023-04-19T08:08:03.084Z,9.50
2023-04-19T08:13:03.598Z,9.40
2023-04-19T08:17:57.689Z,9.40
2023-04-19T08:22:44.980Z,9.70
2023-04-19T08:27:30.423Z,9.90
2023-04-19T08:32:17.103Z,9.90
2023-04-19T08:37:36.681Z,10.40
2023-04-19T08:42:44.518Z,10.40
2023-04-19T08:47:33.615Z,10.30
2023-04-19T08:52:20.126Z,10.30
2023-04-19T08:57:06.187Z,10.20
2023-04-19T09:01:51.399Z,10.10
2023-04-19T09:07:00.625Z,10.60
2023-04-19T09:11:47.300Z,10.90
2023-04-19T09:16:47.756Z,11.20
2023-04-19T09:22:09.087Z,11.20
2023-04-19T09:26:57.979Z,11.20
2023-04-19T09:32:02.783Z,11.10
2023-04-19T09:36:54.588Z,10.60
2023-04-19T09:41:53.715Z,11.10
2023-04-19T09:46:42.706Z,11.50
2023-04-19T09:51:45.593Z,11.70
2023-04-19T09:56:48.105Z,11.40
2023-04-19T10:01:40.000Z,11.80
2023-04-19T10:11:15.662Z,11.40
2023-04-19T10:16:19.708Z,11.30
2023-04-19T10:21:09.030Z,11.40
2023-04-19T10:25:57.802Z,12.00
2023-04-19T10:30:59.054Z,12.60
2023-04-19T10:35:46.743Z,12.20
2023-04-19T10:41:04.252Z,11.90
2023-04-19T10:45:49.960Z,12.80
2023-04-19T10:51:14.511Z,13.50
2023-04-19T10:56:02.609Z,13.70
2023-04-19T11:01:05.105Z,12.90
2023-04-19T11:06:23.165Z,12.20
2023-04-19T11:11:12.063Z,11.80
2023-04-19T11:16:16.660Z,11.70
2023-04-19T11:21:04.575Z,12.00
2023-04-19T11:25:53.843Z,12.10
2023-04-19T11:30:39.280Z,13.10
2023-04-19T11:35:27.310Z,13.40
2023-04-19T11:40:18.653Z,13.10
2023-04-19T11:45:05.182Z,12.80
2023-04-19T11:49:52.432Z,11.80
2023-04-19T11:54:40.016Z,11.30
2023-04-19T11:59:42.433Z,11.10
2023-04-19T12:04:32.507Z,11.20
2023-04-19T12:09:24.279Z,11.10
2023-04-19T12:14:11.392Z,10.60
2023-04-19T12:18:54.851Z,10.60
2023-04-19T12:23:42.798Z,10.80
2023-04-19T12:28:29.721Z,11.40
2023-04-19T12:33:19.158Z,11.90
2023-04-19T12:38:11.696Z,12.50
2023-04-19T12:42:55.541Z,12.50
2023-04-19T12:47:45.889Z,12.00
2023-04-19T12:52:32.003Z,12.00
2023-04-19T12:57:20.011Z,12.50
2023-04-19T13:02:07.761Z,12.40
2023-04-19T13:06:55.114Z,12.20
2023-04-19T13:11:46.423Z,11.90
2023-04-19T13:16:32.113Z,12.20
2023-04-19T13:21:18.549Z,12.00
2023-04-19T13:26:10.857Z,11.60
2023-04-19T13:30:56.522Z,11.40
2023-04-19T13:35:46.114Z,11.50
2023-04-19T13:40:35.592Z,11.80
2023-04-19T13:45:20.901Z,12.40
2023-04-19T13:50:08.680Z,13.10
2023-04-19T13:54:59.883Z,13.60
2023-04-19T13:59:44.478Z,13.40
2023-04-19T14:04:35.088Z,12.90
2023-04-19T14:09:22.360Z,11.80
2023-04-19T14:14:07.956Z,10.30
2023-04-19T14:18:57.676Z,8.90
2023-04-19T14:23:44.829Z,8.20
2023-04-19T14:28:31.571Z,8.00
2023-04-19T14:33:23.235Z,7.90
2023-04-19T14:38:08.561Z,7.40
2023-04-19T14:42:55.948Z,7.40
2023-04-19T14:47:42.988Z,7.20
2023-04-19T14:52:32.108Z,6.90
2023-04-19T14:57:21.772Z,7.00
2023-04-19T15:02:25.780Z,7.30
2023-04-19T15:07:11.629Z,7.50
2023-04-19T15:12:04.204Z,7.60
2023-04-19T15:16:48.275Z,7.40
2023-04-19T15:21:35.963Z,6.90
2023-04-19T15:26:28.460Z,6.50
2023-04-19T15:31:12.010Z,6.10
2023-04-19T15:36:04.101Z,5.90
2023-04-19T15:40:49.029Z,5.70
2023-04-19T15:45:38.568Z,5.70
2023-04-19T15:50:27.962Z,5.90
2023-04-19T15:55:11.571Z,6.00
2023-04-19T16:00:03.769Z,6.00
2023-04-19T16:05:02.757Z,6.00
2023-04-19T16:09:53.334Z,5.90
2023-04-19T16:14:38.709Z,5.90
2023-04-19T16:19:31.526Z,5.90
2023-04-19T16:24:14.939Z,5.80
2023-04-19T16:29:03.236Z,5.90
2023-04-19T16:33:50.817Z,5.90
2023-04-19T16:38:41.821Z,6.00
2023-04-19T16:43:27.089Z,6.20
2023-04-19T16:48:20.036Z,6.10
2023-04-19T16:53:03.635Z,6.20
2023-04-19T16:57:56.129Z,6.20
2023-04-19T17:02:40.004Z,6.10
2023-04-19T17:07:26.942Z,5.90
2023-04-19T17:12:16.489Z,5.80
2023-04-19T17:17:20.165Z,5.70
2023-04-19T17:22:09.919Z,5.60
2023-04-19T17:26:56.926Z,5.50
2023-04-19T17:31:43.963Z,5.40
2023-04-19T17:36:47.330Z,5.30
2023-04-19T17:41:40.754Z,5.20
2023-04-19T17:46:24.332Z,5.20
2023-04-19T17:51:14.043Z,5.20
2023-04-19T17:56:18.979Z,5.10
2023-04-19T18:01:06.723Z,5.10
2023-04-19T18:05:54.018Z,5.20
2023-04-19T18:10:40.561Z,5.10
2023-04-19T18:15:28.111Z,5.10
2023-04-19T18:20:16.797Z,5.10
2023-04-19T18:25:25.659Z,5.10
2023-04-19T18:30:10.260Z,5.10
2023-04-19T18:34:57.523Z,5.00
2023-04-19T18:39:42.965Z,4.80
2023-04-19T18:44:52.178Z,4.80
2023-04-19T18:49:35.719Z,4.70
2023-04-19T18:54:24.559Z,4.60
2023-04-19T18:59:10.942Z,4.70
2023-04-19T19:09:03.285Z,4.60
2023-04-19T19:13:57.564Z,4.50
2023-04-19T19:18:41.079Z,4.40
2023-04-19T19:23:35.819Z,4.40
2023-04-19T19:28:34.419Z,4.60
2023-04-19T19:33:22.799Z,4.50
2023-04-19T19:38:07.051Z,4.50
2023-04-19T19:42:54.947Z,4.40
2023-04-19T19:47:49.484Z,4.40
2023-04-19T19:52:50.971Z,4.30
2023-04-19T20:02:27.398Z,4.20
2023-04-19T20:12:02.218Z,4.10
2023-04-19T20:16:48.676Z,4.10
2023-04-19T20:21:41.144Z,4.00
2023-04-19T20:26:24.782Z,4.10
2023-04-19T20:31:13.058Z,4.20
2023-04-19T20:36:03.913Z,4.10
2023-04-19T20:40:49.689Z,4.10
2023-04-19T20:45:36.171Z,4.00
2023-04-19T20:50:23.985Z,4.00
2023-04-19T20:55:15.559Z,4.10
2023-04-19T20:59:59.058Z,4.10
2023-04-19T21:04:48.978Z,4.20
2023-04-19T21:09:36.427Z,4.10
2023-04-19T21:14:26.032Z,4.00
2023-04-19T21:19:11.339Z,3.90
2023-04-19T21:24:01.070Z,3.90
2023-04-19T21:28:49.958Z,3.90
2023-04-19T21:33:36.129Z,3.80
2023-04-19T21:38:25.805Z,3.80
2023-04-19T21:43:11.861Z,3.70
2023-04-19T21:47:59.432Z,3.60
2023-04-19T21:52:49.019Z,3.60
2023-04-19T21:57:38.857Z,3.60
2023-04-19T22:02:23.458Z,3.60
2023-04-19T22:07:30.307Z,3.60
2023-04-19T22:12:15.683Z,3.50
2023-04-19T22:17:06.378Z,3.50
2023-04-19T22:21:53.401Z,3.50
2023-04-19T22:26:41.025Z,3.40
2023-04-19T22:31:30.588Z,3.40
2023-04-19T22:36:16.334Z,3.30
2023-04-19T22:41:02.957Z,3.30
2023-04-19T22:45:55.883Z,3.10
2023-04-19T22:50:39.307Z,3.10
2023-04-19T22:55:32.394Z,3.30
2023-04-19T23:00:18.178Z,3.10
2023-04-19T23:05:08.013Z,3.10
2023-04-19T23:09:52.164Z,3.10
2023-04-19T23:14:45.070Z,3.10
2023-04-19T23:19:28.865Z,3.20
2023-04-19T23:24:17.068Z,3.30
2023-04-19T23:29:03.626Z,3.30
2023-04-19T23:33:56.349Z,3.30
2023-04-19T23:38:40.131Z,3.30
2023-04-19T23:43:27.675Z,3.30
2023-04-19T23:48:20.478Z,3.30
2023-04-19T23:53:05.669Z,3.40
2023-04-19T23:57:52.670Z,3.40
